createdAt,value
2019-01-25T00:04:17.472Z,97847.23
2019-01-25T00:08:23.221Z,97845.72
2019-01-25T00:12:28.928Z,97843.66
2019-01-25T00:16:34.614Z,97850.10
2019-01-25T00:20:40.374Z,97852.19
2019-01-25T00:24:46.069Z,97843.13
2019-01-25T00:28:51.839Z,97852.86
2019-01-25T00:32:57.528Z,97856.53
2019-01-25T00:37:03.311Z,97864.41
2019-01-25T00:41:09.001Z,97854.31
2019-01-25T00:45:15.853Z,97860.27
2019-01-25T00:49:21.515Z,97868.27
2019-01-25T00:53:27.280Z,97859.41
2019-01-25T00:57:33.018Z,97865.94
2019-01-25T01:01:38.876Z,97857.86
2019-01-25T01:05:45.335Z,97860.94
2019-01-25T01:09:51.080Z,97859.54
2019-01-25T01:13:56.767Z,97861.38
2019-01-25T01:18:02.473Z,97861.30
2019-01-25T01:22:08.394Z,97864.33
2019-01-25T01:26:14.080Z,97872.70
2019-01-25T01:30:22.546Z,97870.84
2019-01-25T01:34:28.243Z,97871.38
2019-01-25T01:38:33.969Z,97877.03
2019-01-25T01:42:39.772Z,97877.59
2019-01-25T01:46:45.519Z,97880.44
2019-01-25T01:50:51.210Z,97881.02
2019-01-25T01:54:57.059Z,97884.39
2019-01-25T01:59:02.749Z,97885.45
2019-01-25T02:03:08.509Z,97889.02
2019-01-25T02:07:14.285Z,97882.42
2019-01-25T02:11:20.090Z,97882.94
2019-01-25T02:15:26.339Z,97883.13
2019-01-25T02:19:32.029Z,97886.95
2019-01-25T02:23:37.705Z,97883.89
2019-01-25T02:27:43.652Z,97887.96
2019-01-25T02:31:50.479Z,97890.86
2019-01-25T02:35:56.177Z,97884.55
2019-01-25T02:40:01.860Z,97883.64
2019-01-25T02:44:08.564Z,97884.01
2019-01-25T02:48:14.499Z,97881.68
2019-01-25T02:52:20.195Z,97883.25
2019-01-25T02:56:25.929Z,97878.29
2019-01-25T03:00:31.752Z,97879.44
2019-01-25T03:04:37.430Z,97882.72
2019-01-25T03:08:43.124Z,97881.61
2019-01-25T03:12:49.155Z,97888.61
2019-01-25T03:16:56.302Z,97893.88
2019-01-25T03:21:02.005Z,97896.85
2019-01-25T03:25:12.358Z,97897.86
2019-01-25T03:29:18.047Z,97897.93
2019-01-25T03:33:23.748Z,97896.42
2019-01-25T03:37:29.436Z,97903.30
2019-01-25T03:41:35.115Z,97904.47
2019-01-25T03:45:40.810Z,97901.88
2019-01-25T03:49:46.498Z,97907.63
2019-01-25T03:53:52.193Z,97901.67
2019-01-25T03:57:57.972Z,97905.02
2019-01-25T04:02:04.002Z,97901.44
2019-01-25T04:06:09.796Z,97910.23
2019-01-25T04:10:29.218Z,97913.02
2019-01-25T04:14:34.910Z,97916.14
2019-01-25T04:18:40.599Z,97920.66
2019-01-25T04:22:46.479Z,97926.70
2019-01-25T04:26:52.174Z,97931.98
2019-01-25T04:30:57.962Z,97940.81
2019-01-25T04:35:04.753Z,97933.94
2019-01-25T04:39:10.751Z,97930.75
2019-01-25T04:43:16.430Z,97930.83
2019-01-25T04:47:25.196Z,97936.95
2019-01-25T04:51:30.888Z,97936.64
2019-01-25T04:55:36.642Z,97938.75
2019-01-25T04:59:42.336Z,97933.20
2019-01-25T05:03:48.032Z,97928.15
2019-01-25T05:08:01.013Z,97932.08
2019-01-25T05:12:06.914Z,97940.11
2019-01-25T05:16:16.833Z,97940.73
2019-01-25T05:20:22.734Z,97936.31
2019-01-25T05:24:28.396Z,97942.38
2019-01-25T05:28:34.081Z,97946.64
2019-01-25T05:32:39.781Z,97957.91
2019-01-25T05:36:45.484Z,97956.89
2019-01-25T05:40:51.225Z,97960.64
2019-01-25T05:44:56.918Z,97967.35
2019-01-25T05:49:02.624Z,97965.67
2019-01-25T05:53:08.519Z,97966.72
2019-01-25T05:57:14.200Z,97964.52
2019-01-25T06:01:19.961Z,97959.69
2019-01-25T06:05:25.665Z,97959.96
2019-01-25T06:09:31.426Z,97959.01
2019-01-25T06:13:37.326Z,97962.24
2019-01-25T06:17:43.031Z,97961.17
2019-01-25T06:21:48.797Z,97966.75
2019-01-25T06:25:57.562Z,97975.31
2019-01-25T06:30:05.799Z,97977.82
2019-01-25T06:34:11.490Z,97981.42
2019-01-25T06:38:17.241Z,97974.46
2019-01-25T06:42:22.967Z,97977.89
2019-01-25T06:46:28.696Z,97978.52
2019-01-25T06:50:34.408Z,97992.52
2019-01-25T06:54:40.085Z,97997.50
2019-01-25T06:58:53.240Z,97999.38
2019-01-25T07:02:58.927Z,98001.91
2019-01-25T07:07:06.326Z,98012.31
2019-01-25T07:11:12.182Z,98016.31
2019-01-25T07:15:19.647Z,98031.93
2019-01-25T07:19:25.329Z,98033.24
2019-01-25T07:23:31.035Z,98037.05
2019-01-25T07:27:36.735Z,98037.49
2019-01-25T07:31:42.449Z,98043.14
2019-01-25T07:35:48.182Z,98049.98
2019-01-25T07:39:53.983Z,98053.94
2019-01-25T07:44:00.157Z,98062.78
2019-01-25T07:48:06.227Z,98047.00
2019-01-25T07:52:12.094Z,98057.08
2019-01-25T07:56:17.809Z,98053.62
2019-01-25T08:00:23.566Z,98049.17
2019-01-25T08:04:29.252Z,98057.26
2019-01-25T08:08:34.993Z,98058.23
2019-01-25T08:12:40.821Z,98059.53
2019-01-25T08:16:46.502Z,98062.09
2019-01-25T08:20:52.229Z,98067.61
2019-01-25T08:24:57.960Z,98061.64
2019-01-25T08:29:03.841Z,98065.55
2019-01-25T08:33:09.809Z,98063.17
2019-01-25T08:37:15.507Z,98068.14
2019-01-25T08:41:21.367Z,98062.16
2019-01-25T08:45:27.053Z,98068.42
2019-01-25T08:49:32.750Z,98067.34
2019-01-25T08:53:38.438Z,98074.14
2019-01-25T08:57:44.378Z,98081.44
2019-01-25T09:01:51.066Z,98071.77
2019-01-25T09:05:56.767Z,98077.50
2019-01-25T09:10:02.463Z,98076.00
2019-01-25T09:14:08.129Z,98071.54
2019-01-25T09:18:13.961Z,98077.53
2019-01-25T09:22:19.649Z,98083.64
2019-01-25T09:26:25.354Z,98074.95
2019-01-25T09:30:31.121Z,98086.78
2019-01-25T09:34:36.814Z,98083.45
2019-01-25T09:38:42.515Z,98072.84
2019-01-25T09:42:48.250Z,98077.59
2019-01-25T09:46:54.011Z,98084.98
2019-01-25T09:50:59.785Z,98092.34
2019-01-25T09:55:11.236Z,98084.50
2019-01-25T09:59:16.938Z,98098.86
2019-01-25T10:07:44.281Z,98108.72
2019-01-25T10:11:49.971Z,98112.00
2019-01-25T10:15:55.684Z,98106.73
2019-01-25T10:20:01.361Z,98107.34
2019-01-25T10:24:07.128Z,98112.73
2019-01-25T10:28:12.817Z,98115.28
2019-01-25T10:32:18.580Z,98110.44
2019-01-25T10:36:24.277Z,98113.36
2019-01-25T10:40:29.951Z,98114.46
2019-01-25T10:44:35.707Z,98107.78
2019-01-25T10:48:43.128Z,98104.81
2019-01-25T10:52:48.926Z,98112.36
2019-01-25T10:56:54.685Z,98105.89
2019-01-25T11:01:00.370Z,98112.99
2019-01-25T11:05:12.364Z,98110.14
2019-01-25T11:09:18.050Z,98098.94
2019-01-25T11:13:23.747Z,98086.42
2019-01-25T11:17:36.254Z,98079.50
2019-01-25T11:21:37.619Z,98076.77
2019-01-25T11:25:43.810Z,98070.83
2019-01-25T11:29:49.489Z,98063.15
2019-01-25T11:33:55.531Z,98065.66
2019-01-25T11:38:01.240Z,98059.70
2019-01-25T11:42:07.029Z,98058.33
2019-01-25T11:46:12.793Z,98066.18
2019-01-25T11:50:21.362Z,98055.86
2019-01-25T11:54:27.072Z,98061.62
2019-01-25T11:58:32.766Z,98058.88
2019-01-25T12:02:38.476Z,98062.80
2019-01-25T12:06:44.189Z,98069.56
2019-01-25T12:10:49.971Z,98073.50
2019-01-25T12:14:55.658Z,98084.49
2019-01-25T12:19:37.529Z,98082.73
2019-01-25T12:23:43.210Z,98080.77
2019-01-25T12:27:49.018Z,98074.47
2019-01-25T12:31:54.728Z,98076.33
2019-01-25T12:36:00.409Z,98066.55
2019-01-25T12:40:14.557Z,98067.70
2019-01-25T12:44:20.318Z,98071.89
2019-01-25T12:48:26.078Z,98071.45
2019-01-25T12:52:31.869Z,98072.34
2019-01-25T12:56:37.638Z,98072.64
2019-01-25T13:00:43.395Z,98075.30
2019-01-25T13:04:49.110Z,98080.97
2019-01-25T13:08:54.795Z,98082.05
2019-01-25T13:13:00.576Z,98082.00
2019-01-25T13:17:18.169Z,98083.11
2019-01-25T13:21:23.842Z,98082.81
2019-01-25T13:25:29.537Z,98081.58
2019-01-25T13:29:35.223Z,98078.06
2019-01-25T13:33:40.994Z,98079.55
2019-01-25T13:38:16.966Z,98074.03
2019-01-25T13:42:22.783Z,98065.07
2019-01-25T13:46:28.465Z,98058.41
2019-01-25T13:50:34.309Z,98059.32
2019-01-25T13:54:40.013Z,98064.58
2019-01-25T13:58:45.684Z,98076.33
2019-01-25T14:02:51.353Z,98074.98
2019-01-25T14:06:57.052Z,98077.66
2019-01-25T14:11:02.788Z,98073.94
2019-01-25T14:15:10.010Z,98080.69
2019-01-25T14:19:15.701Z,98089.52
2019-01-25T14:23:21.370Z,98095.20
2019-01-25T14:27:27.100Z,98094.44
2019-01-25T14:31:32.831Z,98086.44
2019-01-25T14:35:38.549Z,98094.42
2019-01-25T14:39:44.230Z,98101.97
2019-01-25T14:43:54.462Z,98099.56
2019-01-25T14:47:57.541Z,98105.20
2019-01-25T14:52:03.282Z,98109.23
2019-01-25T14:56:09.141Z,98101.64
2019-01-25T15:00:16.123Z,98106.08
2019-01-25T15:04:21.805Z,98108.37
2019-01-25T15:08:27.515Z,98113.39
2019-01-25T15:12:33.205Z,98118.96
2019-01-25T15:16:38.978Z,98124.55
2019-01-25T15:20:45.626Z,98115.94
2019-01-25T15:24:51.313Z,98119.02
2019-01-25T15:28:56.998Z,98120.17
2019-01-25T15:33:02.750Z,98118.99
2019-01-25T15:37:08.515Z,98117.66
2019-01-25T15:41:14.545Z,98113.43
2019-01-25T15:45:22.261Z,98113.23
2019-01-25T15:49:27.930Z,98115.74
2019-01-25T15:53:33.628Z,98119.59
2019-01-25T15:57:39.390Z,98125.17
2019-01-25T16:01:45.084Z,98118.23
2019-01-25T16:05:50.781Z,98127.28
2019-01-25T16:09:56.465Z,98127.09
2019-01-25T16:14:02.155Z,98128.67
2019-01-25T16:18:07.837Z,98130.19
2019-01-25T16:22:13.613Z,98143.09
2019-01-25T16:26:19.319Z,98145.22
2019-01-25T16:30:31.021Z,98139.61
2019-01-25T16:34:36.804Z,98146.73
2019-01-25T16:38:42.493Z,98148.24
2019-01-25T16:42:48.189Z,98146.67
2019-01-25T16:46:53.905Z,98142.27
2019-01-25T16:50:59.683Z,98153.44
2019-01-25T16:55:11.370Z,98147.64
2019-01-25T16:59:17.066Z,98147.40
2019-01-25T17:03:22.794Z,98137.17
2019-01-25T17:07:28.495Z,98146.03
2019-01-25T17:11:34.181Z,98153.41
2019-01-25T17:15:39.991Z,98143.13
2019-01-25T17:19:45.703Z,98143.92
2019-01-25T17:23:51.390Z,98150.00
2019-01-25T17:27:57.096Z,98162.73
2019-01-25T17:32:02.846Z,98165.78
2019-01-25T17:36:08.596Z,98168.36
2019-01-25T17:40:24.292Z,98165.81
2019-01-25T17:44:29.994Z,98156.77
2019-01-25T17:48:35.798Z,98159.34
2019-01-25T17:52:41.669Z,98160.11
2019-01-25T17:56:47.359Z,98147.80
2019-01-25T18:00:54.363Z,98139.95
2019-01-25T18:05:00.187Z,98157.41
2019-01-25T18:09:08.530Z,98148.91
2019-01-25T18:13:14.291Z,98146.98
2019-01-25T18:17:19.965Z,98157.42
2019-01-25T18:21:25.802Z,98155.73
2019-01-25T18:25:45.249Z,98150.18
2019-01-25T18:29:50.950Z,98151.59
2019-01-25T18:33:56.646Z,98159.25
2019-01-25T18:38:02.332Z,98165.96
2019-01-25T18:42:08.182Z,98169.37
2019-01-25T18:46:14.016Z,98165.12
2019-01-25T18:50:19.963Z,98163.80
2019-01-25T18:54:25.719Z,98146.96
2019-01-25T18:58:31.415Z,98145.73
2019-01-25T19:02:38.014Z,98142.95
2019-01-25T19:06:43.751Z,98144.39
2019-01-25T19:10:49.566Z,98147.66
2019-01-25T19:14:55.325Z,98146.22
2019-01-25T19:19:00.994Z,98129.83
2019-01-25T19:23:10.424Z,98113.81
2019-01-25T19:27:16.119Z,98112.89
2019-01-25T19:31:22.017Z,98105.95
2019-01-25T19:35:27.898Z,98096.17
2019-01-25T19:39:33.645Z,98100.39
2019-01-25T19:43:39.401Z,98098.73
2019-01-25T19:47:45.170Z,98090.56
2019-01-25T19:51:51.088Z,98096.50
2019-01-25T19:55:56.858Z,98109.50
2019-01-25T20:00:02.619Z,98113.07
2019-01-25T20:04:08.565Z,98105.95
2019-01-25T20:08:14.388Z,98112.83
2019-01-25T20:12:20.157Z,98112.31
2019-01-25T20:16:25.998Z,98120.65
2019-01-25T20:20:37.856Z,98129.69
2019-01-25T20:24:43.548Z,98128.48
2019-01-25T20:28:50.051Z,98133.85
2019-01-25T20:32:55.822Z,98129.89
2019-01-25T20:37:02.699Z,98119.04
2019-01-25T20:41:08.421Z,98116.55
2019-01-25T20:45:27.104Z,98117.13
2019-01-25T20:55:22.960Z,98120.19
2019-01-25T21:00:18.696Z,98103.97
2019-01-25T21:04:24.368Z,98101.22
2019-01-25T21:08:30.832Z,98101.29
2019-01-25T21:12:36.595Z,98095.45
2019-01-25T21:16:42.277Z,98093.05
2019-01-25T21:20:48.320Z,98081.77
2019-01-25T21:24:53.990Z,98078.75
2019-01-25T21:28:59.699Z,98063.57
2019-01-25T21:33:06.702Z,98068.44
2019-01-25T21:37:13.432Z,98056.14
2019-01-25T21:41:19.097Z,98049.16
2019-01-25T21:45:28.792Z,98055.66
2019-01-25T21:49:34.480Z,98048.96
2019-01-25T21:53:40.168Z,98045.19
2019-01-25T21:58:24.623Z,98039.95
2019-01-25T22:02:48.105Z,98043.92
2019-01-25T22:07:17.650Z,98031.84
2019-01-25T22:11:23.347Z,98040.20
2019-01-25T22:15:29.121Z,98032.78
2019-01-25T22:19:34.807Z,98022.94
2019-01-25T22:23:40.562Z,98021.36
2019-01-25T22:28:19.067Z,98015.77
2019-01-25T22:32:24.787Z,98006.22
2019-01-25T22:36:30.487Z,98002.73
2019-01-25T22:40:36.257Z,98004.73
2019-01-25T22:44:41.949Z,97997.56
2019-01-25T22:48:47.694Z,97991.02
2019-01-25T22:52:53.527Z,97994.44
2019-01-25T22:57:17.125Z,97990.29
2019-01-25T23:01:25.738Z,97997.69
2019-01-25T23:05:53.561Z,97992.55
2019-01-25T23:10:17.461Z,97978.53
2019-01-25T23:14:23.224Z,97979.80
2019-01-25T23:18:28.918Z,97969.87
2019-01-25T23:22:34.684Z,97967.16
2019-01-25T23:26:40.387Z,97966.92
2019-01-25T23:30:46.036Z,97963.16
2019-01-25T23:34:51.735Z,97949.05
2019-01-25T23:38:57.498Z,97947.52
2019-01-25T23:43:03.213Z,97942.21
2019-01-25T23:47:08.885Z,97929.38
2019-01-25T23:51:15.540Z,97926.20
2019-01-25T23:55:21.362Z,97928.14
2019-01-25T23:59:27.165Z,97926.77
